Time;durP1;ratioP1;P1;durP2;ratioP2;P2;SDS_P1;SDS_P2;PMS_P1;PMS_P2;Temp;Humidity;BMP_temperature;BMP_pressure;BME280_temperature;BME280_humidity;BME280_pressure;Samples;Min_cycle;Max_cycle;Signal;HPM_P1;HPM_P2
2021/11/06 00:00:38;;;;;;;10.80;8.73;;;;;;;;;;5035745;28;20506;-66
2021/11/06 00:03:06;;;;;;;9.50;8.37;;;;;;;;;;5035995;28;20867;-65
2021/11/06 00:05:32;;;;;;;8.53;7.23;;;;;;;;;;5025638;28;20670;-65
2021/11/06 00:07:58;;;;;;;9.63;7.30;;;;;;;;;;5034780;28;20421;-66
2021/11/06 00:10:25;;;;;;;10.13;7.80;;;;;;;;;;5035191;28;20422;-65
2021/11/06 00:12:51;;;;;;;8.47;7.60;;;;;;;;;;5035455;28;20876;-65
2021/11/06 00:15:17;;;;;;;9.03;7.63;;;;;;;;;;5035580;28;20430;-66
2021/11/06 00:17:44;;;;;;;8.87;7.97;;;;;;;;;;5035535;28;20395;-66
2021/11/06 00:20:11;;;;;;;10.00;7.90;;;;;;;;;;5035157;28;20486;-66
2021/11/06 00:22:37;;;;;;;9.27;8.30;;;;;;;;;;5035794;28;20476;-64
2021/11/06 00:25:04;;;;;;;8.43;6.93;;;;;;;;;;5035676;28;20399;-64
2021/11/06 00:27:30;;;;;;;9.57;7.73;;;;;;;;;;5034532;28;20399;-65
2021/11/06 00:29:56;;;;;;;10.23;8.23;;;;;;;;;;5035155;28;20461;-64
2021/11/06 00:32:22;;;;;;;11.57;8.83;;;;;;;;;;5035077;28;20533;-64
2021/11/06 00:34:48;;;;;;;10.07;9.00;;;;;;;;;;5035031;28;20465;-64
2021/11/06 00:37:14;;;;;;;10.97;8.90;;;;;;;;;;5035486;28;20516;-64
2021/11/06 00:39:41;;;;;;;10.87;8.60;;;;;;;;;;5035410;28;20495;-64
2021/11/06 00:42:07;;;;;;;11.70;8.67;;;;;;;;;;5034024;28;20469;-65
2021/11/06 00:44:33;;;;;;;10.23;8.03;;;;;;;;;;5035374;28;20410;-65
2021/11/06 00:46:59;;;;;;;9.10;7.90;;;;;;;;;;5035045;28;20399;-65
2021/11/06 00:49:25;;;;;;;9.87;8.83;;;;;;;;;;5034780;28;20465;-64
2021/11/06 00:51:51;;;;;;;10.53;8.53;;;;;;;;;;5034918;28;20426;-64
2021/11/06 00:54:17;;;;;;;10.23;8.53;;;;;;;;;;5034809;28;20464;-64
2021/11/06 00:56:43;;;;;;;11.17;8.57;;;;;;;;;;5034841;28;20405;-64
2021/11/06 00:59:09;;;;;;;9.10;7.70;;;;;;;;;;5033775;28;20505;-64
2021/11/06 01:01:37;;;;;;;11.60;7.43;;;;;;;;;;5034593;28;20974;-64
2021/11/06 01:04:04;;;;;;;11.60;8.80;;;;;;;;;;5034207;28;20915;-65
2021/11/06 01:06:30;;;;;;;9.70;7.87;;;;;;;;;;5034732;28;20846;-64
2021/11/06 01:08:56;;;;;;;7.70;6.50;;;;;;;;;;5029860;28;20419;-64
2021/11/06 01:11:22;;;;;;;9.60;7.20;;;;;;;;;;5026406;28;21009;-64
2021/11/06 01:13:48;;;;;;;12.53;10.13;;;;;;;;;;5034316;28;20407;-65
2021/11/06 01:16:14;;;;;;;7.80;7.00;;;;;;;;;;5034573;28;20414;-66
2021/11/06 01:18:41;;;;;;;10.90;8.30;;;;;;;;;;5034310;28;20403;-64
2021/11/06 01:21:07;;;;;;;8.93;7.07;;;;;;;;;;5033980;28;20442;-66
2021/11/06 01:23:33;;;;;;;10.07;7.83;;;;;;;;;;5033666;28;20418;-65
2021/11/06 01:25:59;;;;;;;9.53;8.00;;;;;;;;;;5034375;28;20403;-65
2021/11/06 01:28:25;;;;;;;13.50;9.53;;;;;;;;;;5034398;28;20711;-66
2021/11/06 01:30:51;;;;;;;11.83;9.07;;;;;;;;;;5034041;28;20490;-66
2021/11/06 01:33:17;;;;;;;10.67;8.13;;;;;;;;;;5033738;28;20489;-65
2021/11/06 01:35:43;;;;;;;11.17;7.67;;;;;;;;;;5033340;28;20429;-64
2021/11/06 01:38:10;;;;;;;10.70;8.47;;;;;;;;;;5033916;28;20461;-65
2021/11/06 01:40:36;;;;;;;9.50;7.57;;;;;;;;;;5033713;28;20418;-65
2021/11/06 01:43:02;;;;;;;12.80;8.63;;;;;;;;;;5034242;28;20434;-65
2021/11/06 01:45:28;;;;;;;12.47;9.60;;;;;;;;;;5033897;28;20407;-65
2021/11/06 01:47:54;;;;;;;12.80;9.10;;;;;;;;;;5033871;28;20426;-65
2021/11/06 01:50:21;;;;;;;14.70;8.07;;;;;;;;;;5033949;28;20811;-65
2021/11/06 01:52:47;;;;;;;10.17;9.13;;;;;;;;;;5033680;28;20938;-65
2021/11/06 01:55:13;;;;;;;10.60;8.60;;;;;;;;;;5033937;28;20505;-66
2021/11/06 01:57:40;;;;;;;12.23;8.93;;;;;;;;;;5034062;28;20406;-65
2021/11/06 02:00:10;;;;;;;13.47;9.80;;;;;;;;;;5033798;28;20738;-64
2021/11/06 02:02:37;;;;;;;14.00;10.70;;;;;;;;;;5033956;28;20454;-66
2021/11/06 02:05:03;;;;;;;11.30;8.87;;;;;;;;;;5033039;28;20418;-65
2021/11/06 02:07:29;;;;;;;13.97;9.57;;;;;;;;;;5030416;28;20408;-66
2021/11/06 02:09:55;;;;;;;10.30;8.53;;;;;;;;;;5027347;28;20784;-66
2021/11/06 02:12:21;;;;;;;11.93;9.30;;;;;;;;;;5033229;28;20461;-64
2021/11/06 02:14:47;;;;;;;13.27;10.27;;;;;;;;;;5033163;28;20419;-66
2021/11/06 02:17:14;;;;;;;9.60;7.87;;;;;;;;;;5027280;28;20459;-66
2021/11/06 02:19:40;;;;;;;12.87;10.57;;;;;;;;;;5023476;28;20426;-66
2021/11/06 02:22:06;;;;;;;11.63;9.20;;;;;;;;;;5033068;28;20463;-66
2021/11/06 02:24:32;;;;;;;12.97;9.80;;;;;;;;;;5032639;28;20417;-65
2021/11/06 02:26:58;;;;;;;12.67;9.43;;;;;;;;;;5033329;28;20390;-66
2021/11/06 02:29:24;;;;;;;12.50;9.77;;;;;;;;;;5032575;28;20464;-64
2021/11/06 02:31:50;;;;;;;10.30;8.03;;;;;;;;;;5033350;28;20791;-64
2021/11/06 02:34:16;;;;;;;11.40;8.73;;;;;;;;;;5031987;28;20418;-65
2021/11/06 02:36:43;;;;;;;11.40;10.13;;;;;;;;;;5032923;28;20521;-64
2021/11/06 02:39:09;;;;;;;9.97;8.97;;;;;;;;;;5033507;28;20781;-65
2021/11/06 02:41:35;;;;;;;10.93;9.40;;;;;;;;;;5032916;28;20457;-65
2021/11/06 02:44:08;;;;;;;9.40;7.93;;;;;;;;;;5033514;28;20435;-64
2021/11/06 02:46:36;;;;;;;11.70;9.80;;;;;;;;;;5033139;28;20426;-66
2021/11/06 02:49:02;;;;;;;12.70;9.57;;;;;;;;;;5032609;28;20422;-66
2021/11/06 02:51:28;;;;;;;10.60;9.07;;;;;;;;;;5034390;28;20430;-66
2021/11/06 02:53:54;;;;;;;13.67;9.10;;;;;;;;;;5037114;28;20398;-65
2021/11/06 02:56:23;;;;;;;16.07;9.83;;;;;;;;;;5037114;28;20394;-65
2021/11/06 02:58:49;;;;;;;13.30;9.57;;;;;;;;;;5037266;28;20402;-65
2021/11/06 03:01:15;;;;;;;14.07;8.87;;;;;;;;;;5036569;28;20537;-64
2021/11/06 03:03:41;;;;;;;12.70;8.67;;;;;;;;;;5037098;28;20403;-65
2021/11/06 03:06:07;;;;;;;11.90;9.70;;;;;;;;;;5036850;28;20407;-64
2021/11/06 03:08:33;;;;;;;10.90;7.93;;;;;;;;;;5036635;28;20407;-65
2021/11/06 03:10:59;;;;;;;12.00;8.73;;;;;;;;;;5036559;28;20418;-65
2021/11/06 03:13:26;;;;;;;11.87;8.40;;;;;;;;;;5036834;28;20935;-65
2021/11/06 03:15:52;;;;;;;10.00;7.93;;;;;;;;;;5036844;28;20403;-65
2021/11/06 03:18:18;;;;;;;12.53;10.00;;;;;;;;;;5037067;28;20818;-65
2021/11/06 03:20:44;;;;;;;13.80;9.87;;;;;;;;;;5036688;28;20407;-63
2021/11/06 03:23:10;;;;;;;21.07;15.07;;;;;;;;;;5036812;28;20513;-64
2021/11/06 03:25:36;;;;;;;25.80;15.30;;;;;;;;;;5036710;28;20980;-64
2021/11/06 03:28:02;;;;;;;20.70;13.47;;;;;;;;;;5036481;28;20926;-64
2021/11/06 03:30:28;;;;;;;15.93;10.90;;;;;;;;;;5036549;28;20480;-64
2021/11/06 03:32:54;;;;;;;15.50;11.67;;;;;;;;;;5036312;28;20518;-64
2021/11/06 03:35:21;;;;;;;15.50;11.50;;;;;;;;;;5036435;28;20464;-64
2021/11/06 03:37:47;;;;;;;14.80;9.83;;;;;;;;;;5036278;28;20951;-64
2021/11/06 03:40:14;;;;;;;17.10;11.50;;;;;;;;;;5027046;28;20494;-64
2021/11/06 03:42:41;;;;;;;16.27;11.67;;;;;;;;;;5022485;28;20590;-64
2021/11/06 03:45:08;;;;;;;14.90;10.17;;;;;;;;;;5036246;28;20446;-65
2021/11/06 03:47:34;;;;;;;13.77;9.10;;;;;;;;;;5036188;28;20403;-66
2021/11/06 03:50:00;;;;;;;11.67;8.40;;;;;;;;;;5027870;28;20420;-65
2021/11/06 03:52:27;;;;;;;11.43;9.13;;;;;;;;;;5028021;28;20443;-64
2021/11/06 03:54:53;;;;;;;10.63;8.50;;;;;;;;;;5033652;28;20433;-65
2021/11/06 03:57:19;;;;;;;11.73;8.60;;;;;;;;;;5018142;28;20499;-64
2021/11/06 03:59:45;;;;;;;11.50;8.80;;;;;;;;;;5019303;28;20978;-64
2021/11/06 04:02:11;;;;;;;11.87;8.43;;;;;;;;;;5017038;28;20989;-64
2021/11/06 04:04:37;;;;;;;12.30;9.07;;;;;;;;;;5031643;28;20407;-64
2021/11/06 04:07:03;;;;;;;12.13;8.77;;;;;;;;;;5019977;28;20771;-63
2021/11/06 04:09:29;;;;;;;13.67;9.20;;;;;;;;;;5036162;28;20403;-64
2021/11/06 04:11:55;;;;;;;12.50;9.90;;;;;;;;;;5035629;28;20544;-64
2021/11/06 04:14:21;;;;;;;11.90;10.00;;;;;;;;;;5035829;28;20454;-64
2021/11/06 04:16:47;;;;;;;18.23;10.90;;;;;;;;;;5035713;28;20395;-64
2021/11/06 04:19:13;;;;;;;13.37;10.73;;;;;;;;;;5035560;28;20399;-64
2021/11/06 04:21:40;;;;;;;13.00;7.90;;;;;;;;;;5035441;28;20461;-63
2021/11/06 04:24:07;;;;;;;10.27;7.27;;;;;;;;;;5035653;28;20896;-64
2021/11/06 04:26:33;;;;;;;10.60;7.40;;;;;;;;;;5026012;28;20422;-64
2021/11/06 04:28:59;;;;;;;11.33;7.03;;;;;;;;;;5015710;28;20468;-64
2021/11/06 04:31:25;;;;;;;10.63;8.50;;;;;;;;;;5015729;28;20400;-63
2021/11/06 04:33:51;;;;;;;11.50;8.90;;;;;;;;;;5015749;28;20404;-64
2021/11/06 04:36:17;;;;;;;12.27;8.97;;;;;;;;;;5024364;28;20455;-64
2021/11/06 04:38:44;;;;;;;11.03;7.60;;;;;;;;;;5014348;28;20427;-64
2021/11/06 04:41:10;;;;;;;17.13;8.77;;;;;;;;;;5015252;28;20892;-65
2021/11/06 04:43:37;;;;;;;19.47;11.60;;;;;;;;;;5027591;28;20489;-63
2021/11/06 04:46:03;;;;;;;20.80;12.90;;;;;;;;;;5034888;28;20422;-64
2021/11/06 04:48:29;;;;;;;14.97;9.70;;;;;;;;;;5035453;28;20399;-64
2021/11/06 04:50:55;;;;;;;12.37;9.77;;;;;;;;;;5034846;28;20510;-64
2021/11/06 04:53:22;;;;;;;18.20;11.60;;;;;;;;;;5034938;28;20423;-64
2021/11/06 04:55:48;;;;;;;14.23;9.63;;;;;;;;;;5035175;28;20474;-64
2021/11/06 04:58:14;;;;;;;15.87;9.40;;;;;;;;;;5020239;28;20895;-63
2021/11/06 05:00:41;;;;;;;12.20;8.10;;;;;;;;;;5015242;28;20403;-64
2021/11/06 05:03:07;;;;;;;10.67;7.40;;;;;;;;;;5023394;28;20800;-63
2021/11/06 05:05:33;;;;;;;6.93;5.73;;;;;;;;;;5023188;28;20415;-63
2021/11/06 05:07:59;;;;;;;9.20;7.00;;;;;;;;;;5019792;28;20419;-63
2021/11/06 05:10:25;;;;;;;17.73;10.80;;;;;;;;;;5014824;28;20901;-64
2021/11/06 05:12:52;;;;;;;16.90;10.03;;;;;;;;;;5015214;28;20451;-63
2021/11/06 05:15:19;;;;;;;13.43;9.27;;;;;;;;;;5014861;28;20810;-63
2021/11/06 05:17:45;;;;;;;9.40;6.30;;;;;;;;;;5031025;28;20415;-63
2021/11/06 05:20:11;;;;;;;7.90;6.40;;;;;;;;;;5034574;28;20410;-64
2021/11/06 05:22:37;;;;;;;8.93;5.87;;;;;;;;;;5034503;28;20458;-64
2021/11/06 05:25:04;;;;;;;10.00;6.80;;;;;;;;;;5034260;28;20431;-64
2021/11/06 05:27:31;;;;;;;10.90;8.10;;;;;;;;;;5034170;28;20964;-64
2021/11/06 05:29:59;;;;;;;7.67;6.67;;;;;;;;;;5033970;28;20915;-64
2021/11/06 05:32:25;;;;;;;8.33;6.20;;;;;;;;;;5033926;28;20426;-64
2021/11/06 05:34:51;;;;;;;8.70;6.40;;;;;;;;;;5035138;28;20449;-64
2021/11/06 05:37:17;;;;;;;8.30;6.23;;;;;;;;;;5034470;28;20422;-65
2021/11/06 05:39:43;;;;;;;7.83;6.40;;;;;;;;;;5026015;28;20514;-63
2021/11/06 05:42:09;;;;;;;10.40;7.33;;;;;;;;;;5018477;28;20458;-64
2021/11/06 05:44:35;;;;;;;11.20;7.57;;;;;;;;;;5034132;28;20432;-65
2021/11/06 05:47:01;;;;;;;9.07;6.60;;;;;;;;;;5033898;28;20470;-65
2021/11/06 05:49:27;;;;;;;7.27;6.00;;;;;;;;;;5032292;28;20414;-64
2021/11/06 05:51:54;;;;;;;7.67;6.80;;;;;;;;;;5034268;28;20892;-65
2021/11/06 05:54:20;;;;;;;9.20;6.10;;;;;;;;;;5033794;28;20413;-64
2021/11/06 05:56:46;;;;;;;9.63;6.00;;;;;;;;;;5034028;28;20417;-64
2021/11/06 05:59:12;;;;;;;11.40;6.97;;;;;;;;;;5033643;28;20873;-66
2021/11/06 06:01:38;;;;;;;13.10;8.30;;;;;;;;;;5033483;28;20455;-64
2021/11/06 06:04:05;;;;;;;15.47;10.40;;;;;;;;;;5033563;28;20395;-65
2021/11/06 06:06:31;;;;;;;19.70;11.57;;;;;;;;;;5025269;28;20407;-65
2021/11/06 06:08:57;;;;;;;15.83;11.03;;;;;;;;;;5016532;28;20446;-64
2021/11/06 06:11:23;;;;;;;16.60;9.77;;;;;;;;;;5027228;28;20481;-65
2021/11/06 06:13:49;;;;;;;12.40;8.63;;;;;;;;;;5033512;28;20476;-64
2021/11/06 06:16:15;;;;;;;13.03;8.90;;;;;;;;;;5033425;28;20398;-64
2021/11/06 06:18:44;;;;;;;12.90;8.67;;;;;;;;;;5033397;28;20842;-64
2021/11/06 06:21:11;;;;;;;10.90;8.57;;;;;;;;;;5033047;28;20906;-65
2021/11/06 06:23:37;;;;;;;11.20;9.00;;;;;;;;;;5033521;28;20405;-64
2021/11/06 06:26:03;;;;;;;13.87;8.40;;;;;;;;;;5032887;28;20414;-65
2021/11/06 06:28:29;;;;;;;12.23;8.97;;;;;;;;;;5033476;28;20399;-65
2021/11/06 06:30:55;;;;;;;12.40;8.60;;;;;;;;;;5033051;28;20402;-67
2021/11/06 06:33:21;;;;;;;11.80;8.27;;;;;;;;;;5032729;28;20485;-65
2021/11/06 06:35:47;;;;;;;12.00;8.37;;;;;;;;;;5033131;28;20395;-64
2021/11/06 06:38:13;;;;;;;10.23;7.10;;;;;;;;;;5019688;28;20490;-66
2021/11/06 06:40:39;;;;;;;10.07;7.60;;;;;;;;;;5013621;28;20399;-65
2021/11/06 06:43:05;;;;;;;10.33;7.27;;;;;;;;;;5019343;28;20427;-65
2021/11/06 06:45:31;;;;;;;10.60;7.97;;;;;;;;;;5013504;28;20426;-65
2021/11/06 06:47:58;;;;;;;10.80;8.10;;;;;;;;;;5013122;28;20395;-65
2021/11/06 06:50:24;;;;;;;9.60;7.27;;;;;;;;;;5029896;28;20415;-66
2021/11/06 06:52:51;;;;;;;9.10;6.83;;;;;;;;;;5032663;28;20435;-65
2021/11/06 06:55:17;;;;;;;11.50;7.87;;;;;;;;;;5033179;28;20497;-64
2021/11/06 06:57:43;;;;;;;9.97;7.80;;;;;;;;;;5032845;28;20770;-65
2021/11/06 07:00:10;;;;;;;10.00;6.80;;;;;;;;;;5032766;28;20464;-66
2021/11/06 07:02:36;;;;;;;14.43;8.87;;;;;;;;;;5032403;28;20983;-65
2021/11/06 07:05:02;;;;;;;13.80;8.50;;;;;;;;;;5017342;28;20499;-64
2021/11/06 07:07:28;;;;;;;8.43;7.20;;;;;;;;;;5012881;28;20905;-64
2021/11/06 07:09:55;;;;;;;9.87;7.60;;;;;;;;;;5020855;28;20405;-66
2021/11/06 07:12:23;;;;;;;8.53;6.67;;;;;;;;;;5032600;28;20450;-65
2021/11/06 07:14:49;;;;;;;7.83;6.93;;;;;;;;;;5032699;28;20880;-65
2021/11/06 07:17:15;;;;;;;8.20;6.73;;;;;;;;;;5033058;28;20752;-64
2021/11/06 07:19:41;;;;;;;9.10;6.83;;;;;;;;;;5032480;28;20893;-65
2021/11/06 07:22:07;;;;;;;7.10;5.90;;;;;;;;;;5032840;28;20852;-65
2021/11/06 07:24:36;;;;;;;7.90;6.00;;;;;;;;;;5032580;28;20403;-65
2021/11/06 07:27:02;;;;;;;7.40;6.10;;;;;;;;;;5032473;28;20899;-64
2021/11/06 07:29:28;;;;;;;9.33;6.50;;;;;;;;;;5032595;28;20470;-65
2021/11/06 07:31:54;;;;;;;7.53;5.57;;;;;;;;;;5032522;28;20434;-65
2021/11/06 07:34:20;;;;;;;6.70;5.17;;;;;;;;;;5032458;28;20391;-66
2021/11/06 07:36:46;;;;;;;6.20;5.40;;;;;;;;;;5031045;28;20422;-65
2021/11/06 07:39:13;;;;;;;7.27;5.37;;;;;;;;;;5029401;28;20414;-64
2021/11/06 07:41:39;;;;;;;7.00;5.80;;;;;;;;;;5036366;28;20946;-64
2021/11/06 07:44:05;;;;;;;5.93;4.70;;;;;;;;;;5035950;28;20432;-65
2021/11/06 07:46:31;;;;;;;5.13;4.60;;;;;;;;;;5036030;28;20411;-65
2021/11/06 07:48:58;;;;;;;5.70;5.03;;;;;;;;;;5035818;28;20414;-65
2021/11/06 07:51:26;;;;;;;5.53;4.00;;;;;;;;;;5035893;28;20892;-64
2021/11/06 07:53:52;;;;;;;6.70;4.07;;;;;;;;;;5035894;28;20970;-64
2021/11/06 07:56:18;;;;;;;4.00;3.33;;;;;;;;;;5035765;28;20410;-64
2021/11/06 07:58:44;;;;;;;4.30;3.60;;;;;;;;;;5035828;28;20457;-65
2021/11/06 08:01:10;;;;;;;3.90;3.37;;;;;;;;;;5035907;28;20927;-65
2021/11/06 08:03:36;;;;;;;5.67;4.23;;;;;;;;;;5035817;28;20427;-65
2021/11/06 08:06:03;;;;;;;5.30;4.20;;;;;;;;;;5035799;28;20407;-64
2021/11/06 08:08:29;;;;;;;6.47;4.77;;;;;;;;;;5035672;28;20417;-64
2021/11/06 08:10:55;;;;;;;7.80;4.17;;;;;;;;;;5035181;28;20426;-66
2021/11/06 08:13:21;;;;;;;6.80;4.80;;;;;;;;;;5035553;28;20422;-64
2021/11/06 08:15:47;;;;;;;11.73;4.80;;;;;;;;;;5035710;28;20478;-64
2021/11/06 08:18:13;;;;;;;4.70;4.03;;;;;;;;;;5035503;28;20408;-65
2021/11/06 08:20:39;;;;;;;5.77;5.17;;;;;;;;;;5035471;28;20406;-64
2021/11/06 08:23:05;;;;;;;6.10;4.60;;;;;;;;;;5035572;28;20769;-64
2021/11/06 08:25:32;;;;;;;6.00;5.40;;;;;;;;;;5035643;28;20412;-66
2021/11/06 08:27:58;;;;;;;5.67;5.07;;;;;;;;;;5035072;28;20411;-65
2021/11/06 08:30:24;;;;;;;9.10;5.73;;;;;;;;;;5035275;28;20407;-66
2021/11/06 08:32:55;;;;;;;6.80;5.60;;;;;;;;;;5035408;28;20738;-66
2021/11/06 08:35:22;;;;;;;6.43;5.20;;;;;;;;;;5035226;28;20489;-66
2021/11/06 08:37:48;;;;;;;10.23;8.30;;;;;;;;;;5030464;28;20492;-64
2021/11/06 08:40:14;;;;;;;13.00;9.33;;;;;;;;;;5035114;28;20403;-64
2021/11/06 08:42:40;;;;;;;11.90;8.17;;;;;;;;;;5034920;28;20883;-65
2021/11/06 08:45:08;;;;;;;16.53;10.23;;;;;;;;;;5035299;28;20896;-64
2021/11/06 08:47:35;;;;;;;12.70;9.13;;;;;;;;;;5035167;28;20394;-64
2021/11/06 08:50:01;;;;;;;13.47;8.77;;;;;;;;;;5034204;28;20453;-64
2021/11/06 08:52:28;;;;;;;11.07;8.23;;;;;;;;;;5035151;28;20433;-64
2021/11/06 08:54:54;;;;;;;13.27;8.23;;;;;;;;;;5034693;28;20403;-64
2021/11/06 08:57:21;;;;;;;11.17;8.90;;;;;;;;;;5034795;28;20411;-65
2021/11/06 08:59:53;;;;;;;11.90;9.00;;;;;;;;;;5034647;28;20892;-64
2021/11/06 09:02:20;;;;;;;16.57;10.50;;;;;;;;;;5034874;28;20450;-64
2021/11/06 09:04:47;;;;;;;12.93;9.23;;;;;;;;;;5034576;28;20395;-63
2021/11/06 09:07:13;;;;;;;18.60;13.10;;;;;;;;;;5034744;28;20395;-65
2021/11/06 09:09:39;;;;;;;17.63;12.57;;;;;;;;;;5034384;28;20416;-65
2021/11/06 09:12:05;;;;;;;17.03;12.77;;;;;;;;;;5034204;28;20453;-65
2021/11/06 09:14:32;;;;;;;18.00;13.93;;;;;;;;;;5035156;28;20898;-65
2021/11/06 09:16:58;;;;;;;18.93;13.10;;;;;;;;;;5034697;28;20402;-65
2021/11/06 09:19:25;;;;;;;20.53;14.93;;;;;;;;;;5034448;28;20402;-65
2021/11/06 09:21:51;;;;;;;20.37;14.77;;;;;;;;;;5033933;28;20454;-65
2021/11/06 09:24:18;;;;;;;16.77;13.40;;;;;;;;;;5034328;28;20403;-65
2021/11/06 09:26:45;;;;;;;19.90;13.53;;;;;;;;;;5034270;28;20461;-65
2021/11/06 09:29:12;;;;;;;21.17;14.90;;;;;;;;;;5034297;28;20399;-65
2021/11/06 09:31:39;;;;;;;19.47;14.97;;;;;;;;;;5034021;28;20439;-65
2021/11/06 09:34:05;;;;;;;20.70;15.10;;;;;;;;;;5034455;28;20402;-65
2021/11/06 09:36:32;;;;;;;20.67;14.70;;;;;;;;;;5025590;28;20403;-65
2021/11/06 09:39:01;;;;;;;17.50;13.90;;;;;;;;;;5029011;28;20887;-65
2021/11/06 09:41:27;;;;;;;15.97;12.77;;;;;;;;;;5033560;28;20485;-65
2021/11/06 09:43:53;;;;;;;20.57;13.83;;;;;;;;;;5015200;28;20415;-65
2021/11/06 09:46:19;;;;;;;12.63;8.80;;;;;;;;;;5014828;28;20399;-65
2021/11/06 09:48:46;;;;;;;15.53;9.50;;;;;;;;;;5024336;28;20532;-65
2021/11/06 09:51:13;;;;;;;11.27;9.07;;;;;;;;;;5028716;28;20795;-65
2021/11/06 09:53:40;;;;;;;12.70;9.33;;;;;;;;;;5033462;28;20776;-65
2021/11/06 09:56:15;;;;;;;15.47;10.70;;;;;;;;;;5033635;28;20423;-65
2021/11/06 09:58:41;;;;;;;12.43;8.77;;;;;;;;;;5033437;28;20949;-65
2021/11/06 10:01:08;;;;;;;9.53;7.40;;;;;;;;;;5033105;28;20512;-65
2021/11/06 10:03:34;;;;;;;9.80;7.37;;;;;;;;;;5033172;28;20529;-65
2021/11/06 10:06:01;;;;;;;8.60;7.27;;;;;;;;;;5033603;28;20411;-65
2021/11/06 10:08:35;;;;;;;12.13;7.10;;;;;;;;;;5033823;28;20754;-65
2021/11/06 10:11:05;;;;;;;9.50;7.60;;;;;;;;;;5033580;28;20403;-66
2021/11/06 10:13:31;;;;;;;8.50;6.80;;;;;;;;;;5033256;28;20439;-65
2021/11/06 10:16:00;;;;;;;10.60;6.97;;;;;;;;;;5033815;28;20427;-65
2021/11/06 10:18:27;;;;;;;11.40;7.83;;;;;;;;;;5033716;28;20399;-65
2021/11/06 10:20:59;;;;;;;8.70;7.17;;;;;;;;;;5033614;28;20398;-64
2021/11/06 10:23:34;;;;;;;10.37;8.17;;;;;;;;;;5033870;28;20474;-65
2021/11/06 10:26:32;;;;;;;10.33;7.30;;;;;;;;;;5033575;28;20441;-65
2021/11/06 10:29:09;;;;;;;8.57;6.60;;;;;;;;;;5000461;28;20417;-65
2021/11/06 10:31:55;;;;;;;9.77;6.97;;;;;;;;;;5033450;28;20426;-65
2021/11/06 10:34:22;;;;;;;8.80;7.00;;;;;;;;;;5032872;28;20446;-65
2021/11/06 10:36:58;;;;;;;8.07;6.07;;;;;;;;;;5013492;28;20430;-65
2021/11/06 10:39:25;;;;;;;10.23;6.70;;;;;;;;;;5013238;28;20414;-65
2021/11/06 10:41:51;;;;;;;8.50;7.33;;;;;;;;;;5013284;28;21054;-65
2021/11/06 10:44:19;;;;;;;6.67;5.80;;;;;;;;;;5014044;28;20760;-65
2021/11/06 10:46:53;;;;;;;7.70;6.20;;;;;;;;;;5033687;28;20419;-65
2021/11/06 10:49:32;;;;;;;7.77;6.40;;;;;;;;;;5019778;28;20498;-64
2021/11/06 10:52:00;;;;;;;6.60;5.57;;;;;;;;;;5033373;28;20764;-65
2021/11/06 10:54:26;;;;;;;8.97;6.90;;;;;;;;;;5032886;28;20395;-65
2021/11/06 10:56:55;;;;;;;8.07;6.37;;;;;;;;;;5032627;28;20810;-65
2021/11/06 10:59:23;;;;;;;8.33;6.30;;;;;;;;;;5032846;28;20442;-65
2021/11/06 11:01:53;;;;;;;9.47;6.60;;;;;;;;;;5033032;28;20450;-65
2021/11/06 11:04:20;;;;;;;9.63;6.40;;;;;;;;;;5033310;28;20750;-65
2021/11/06 11:06:54;;;;;;;10.97;6.20;;;;;;;;;;5032893;28;20737;-64
2021/11/06 11:09:21;;;;;;;7.53;6.03;;;;;;;;;;5033056;28;20472;-65
2021/11/06 11:11:51;;;;;;;8.00;5.40;;;;;;;;;;5027530;28;20447;-65
2021/11/06 11:14:21;;;;;;;7.07;5.67;;;;;;;;;;5017656;28;20935;-65
2021/11/06 11:16:51;;;;;;;7.10;5.57;;;;;;;;;;5020509;28;20407;-65
2021/11/06 11:19:18;;;;;;;7.50;5.70;;;;;;;;;;5019819;28;20418;-65
2021/11/06 11:21:45;;;;;;;6.00;5.23;;;;;;;;;;5036496;28;20537;-65
2021/11/06 11:24:13;;;;;;;5.93;5.07;;;;;;;;;;5036700;28;20409;-65
2021/11/06 11:26:41;;;;;;;7.90;6.50;;;;;;;;;;5036781;28;20776;-65
2021/11/06 11:29:08;;;;;;;7.93;6.30;;;;;;;;;;5036498;28;20430;-65
2021/11/06 11:31:34;;;;;;;8.80;6.87;;;;;;;;;;5036366;28;20585;-65
2021/11/06 11:34:00;;;;;;;7.97;6.00;;;;;;;;;;5037000;28;20741;-65
2021/11/06 11:36:31;;;;;;;7.50;6.63;;;;;;;;;;5036707;28;20403;-65
2021/11/06 11:38:59;;;;;;;6.93;5.90;;;;;;;;;;5018714;28;20408;-65
2021/11/06 11:41:49;;;;;;;14.73;12.00;;;;;;;;;;5029560;28;20497;-65
2021/11/06 11:44:23;;;;;;;8.50;6.80;;;;;;;;;;5036149;28;20410;-65
2021/11/06 11:47:05;;;;;;;9.43;6.63;;;;;;;;;;5036807;28;20484;-65
2021/11/06 11:49:32;;;;;;;8.37;6.63;;;;;;;;;;5036138;28;20768;-65
2021/11/06 11:52:18;;;;;;;9.17;6.70;;;;;;;;;;5035198;28;20435;-65
2021/11/06 11:55:03;;;;;;;6.90;5.50;;;;;;;;;;5036823;28;20926;-65
2021/11/06 11:57:30;;;;;;;7.20;6.40;;;;;;;;;;5016285;28;20493;-65
2021/11/06 11:59:56;;;;;;;8.10;5.83;;;;;;;;;;5016231;28;20408;-66
2021/11/06 12:02:24;;;;;;;6.80;6.03;;;;;;;;;;5027076;28;20535;-65
2021/11/06 12:05:09;;;;;;;8.63;5.97;;;;;;;;;;5035387;28;20775;-65
2021/11/06 12:07:35;;;;;;;9.00;6.70;;;;;;;;;;5028659;28;20423;-65
2021/11/06 12:10:19;;;;;;;8.30;6.20;;;;;;;;;;5034285;28;20413;-65
2021/11/06 12:12:45;;;;;;;7.77;6.80;;;;;;;;;;5028838;28;20533;-65
2021/11/06 12:15:12;;;;;;;9.17;6.70;;;;;;;;;;5035989;28;20398;-66
2021/11/06 12:17:38;;;;;;;6.70;5.63;;;;;;;;;;5035791;28;20434;-65
2021/11/06 12:20:22;;;;;;;7.97;7.17;;;;;;;;;;5035453;28;20452;-65
2021/11/06 12:22:48;;;;;;;8.33;7.53;;;;;;;;;;5035316;28;20883;-65
2021/11/06 12:25:22;;;;;;;8.37;7.23;;;;;;;;;;5034685;28;20472;-65
2021/11/06 12:28:00;;;;;;;8.67;6.97;;;;;;;;;;5035857;28;20402;-65
2021/11/06 12:30:26;;;;;;;8.23;6.80;;;;;;;;;;5035159;28;20465;-65
2021/11/06 12:32:52;;;;;;;7.30;6.40;;;;;;;;;;5035214;28;20477;-65
2021/11/06 12:35:21;;;;;;;7.43;6.37;;;;;;;;;;5035361;28;20813;-66
2021/11/06 12:37:51;;;;;;;9.50;6.53;;;;;;;;;;5030536;28;20418;-65
2021/11/06 12:40:20;;;;;;;8.57;7.40;;;;;;;;;;5016956;28;20979;-65
2021/11/06 12:43:12;;;;;;;8.07;6.13;;;;;;;;;;5015417;28;20462;-65
2021/11/06 12:45:40;;;;;;;8.50;6.67;;;;;;;;;;5013394;28;20442;-65
2021/11/06 12:48:08;;;;;;;7.70;6.03;;;;;;;;;;5026082;28;20419;-66
2021/11/06 12:50:35;;;;;;;8.20;6.20;;;;;;;;;;5034767;28;20426;-65
2021/11/06 12:53:01;;;;;;;9.20;7.27;;;;;;;;;;5034832;28;20931;-65
2021/11/06 12:55:27;;;;;;;8.30;6.87;;;;;;;;;;5034674;28;20926;-65
2021/11/06 12:57:55;;;;;;;10.00;7.30;;;;;;;;;;5034551;28;20422;-65
2021/11/06 13:00:35;;;;;;;9.30;6.83;;;;;;;;;;5034841;28;20403;-65
2021/11/06 13:03:02;;;;;;;7.90;6.53;;;;;;;;;;5034721;28;20462;-65
2021/11/06 13:05:38;;;;;;;8.23;6.47;;;;;;;;;;5034905;28;20399;-66
2021/11/06 13:08:20;;;;;;;8.60;7.33;;;;;;;;;;5033626;28;20980;-67
2021/11/06 13:10:47;;;;;;;23.03;7.27;;;;;;;;;;5014852;28;20437;-65
2021/11/06 13:13:18;;;;;;;9.30;7.60;;;;;;;;;;5015473;28;20494;-66
2021/11/06 13:15:46;;;;;;;9.10;6.77;;;;;;;;;;5031080;28;20510;-64
2021/11/06 13:18:13;;;;;;;9.30;7.33;;;;;;;;;;5034428;28;20405;-65
2021/11/06 13:20:40;;;;;;;8.53;7.23;;;;;;;;;;5034256;28;20414;-66
2021/11/06 13:23:06;;;;;;;8.53;7.33;;;;;;;;;;5034036;28;20537;-65
2021/11/06 13:25:33;;;;;;;10.33;8.03;;;;;;;;;;5034373;28;20398;-65
2021/11/06 13:28:04;;;;;;;8.40;7.43;;;;;;;;;;5034476;28;20403;-66
2021/11/06 13:30:36;;;;;;;8.67;7.33;;;;;;;;;;5033414;28;20442;-65
2021/11/06 13:33:03;;;;;;;8.77;6.77;;;;;;;;;;5034234;28;20429;-64
2021/11/06 13:35:34;;;;;;;11.83;6.80;;;;;;;;;;5034286;28;20770;-65
2021/11/06 13:38:13;;;;;;;9.30;7.37;;;;;;;;;;5031844;28;20438;-65
2021/11/06 13:40:53;;;;;;;9.80;7.20;;;;;;;;;;5030630;28;20422;-64
2021/11/06 13:43:24;;;;;;;8.17;6.77;;;;;;;;;;5014415;28;20478;-65
2021/11/06 13:46:00;;;;;;;8.40;6.63;;;;;;;;;;5014279;28;20423;-66
2021/11/06 13:48:28;;;;;;;9.80;6.93;;;;;;;;;;5014194;28;20420;-66
2021/11/06 13:50:55;;;;;;;8.37;6.40;;;;;;;;;;5019070;28;20442;-65
2021/11/06 13:53:25;;;;;;;8.27;6.70;;;;;;;;;;5034158;28;20410;-65
2021/11/06 13:55:58;;;;;;;6.70;5.53;;;;;;;;;;5034228;28;20510;-65
2021/11/06 13:58:25;;;;;;;7.90;6.80;;;;;;;;;;5033627;28;20879;-66
2021/11/06 14:00:52;;;;;;;7.60;6.17;;;;;;;;;;5034157;28;20431;-64
2021/11/06 14:03:18;;;;;;;10.23;6.90;;;;;;;;;;5033616;28;20801;-64
2021/11/06 14:05:44;;;;;;;7.67;6.50;;;;;;;;;;5033263;28;20490;-64
2021/11/06 14:08:14;;;;;;;13.13;6.90;;;;;;;;;;5033611;28;20391;-64
2021/11/06 14:10:41;;;;;;;9.10;6.70;;;;;;;;;;5033848;28;20903;-65
2021/11/06 14:13:09;;;;;;;7.47;6.00;;;;;;;;;;5033158;28;20462;-65
2021/11/06 14:15:39;;;;;;;8.70;6.57;;;;;;;;;;5033348;28;20414;-66
2021/11/06 14:18:08;;;;;;;6.70;5.93;;;;;;;;;;5033966;28;20406;-65
2021/11/06 14:20:34;;;;;;;12.27;7.30;;;;;;;;;;5033732;28;20441;-66
2021/11/06 14:23:01;;;;;;;12.80;8.10;;;;;;;;;;5032950;28;20459;-66
2021/11/06 14:25:46;;;;;;;10.33;8.00;;;;;;;;;;5033527;28;20420;-65
2021/11/06 14:28:14;;;;;;;10.60;7.77;;;;;;;;;;5033155;28;20856;-65
2021/11/06 14:30:46;;;;;;;14.33;8.37;;;;;;;;;;5032945;28;20423;-66
2021/11/06 14:33:12;;;;;;;17.20;7.70;;;;;;;;;;5033088;28;20456;-65
2021/11/06 14:35:39;;;;;;;9.20;6.30;;;;;;;;;;5014477;28;20506;-64